Time;durP1;ratioP1;P1;durP2;ratioP2;P2;SDS_P1;SDS_P2;PMS_P1;PMS_P2;Temp;Humidity;BMP_temperature;BMP_pressure;BME280_temperature;BME280_humidity;BME280_pressure;Samples;Min_cycle;Max_cycle;Signal;HPM_P1;HPM_P2
2021/07/16 00:08:17;;;;;;;1.80;1.03;;;22.90;99.90;;;;;;20921555;22;20245;-66
2021/07/16 00:18:21;;;;;;;1.37;1.17;;;22.90;99.90;;;;;;20908465;28;20312;-67
2021/07/16 00:28:26;;;;;;;0.90;0.57;;;22.40;99.90;;;;;;20908018;28;20556;-67
2021/07/16 00:38:30;;;;;;;0.50;0.27;;;22.50;99.90;;;;;;20906210;28;20229;-67
2021/07/16 00:48:34;;;;;;;1.33;0.50;;;22.50;99.90;;;;;;20905570;28;20194;-66
2021/07/16 00:58:38;;;;;;;0.60;0.50;;;22.50;99.90;;;;;;20906542;28;20644;-67
2021/07/16 01:08:43;;;;;;;0.83;0.40;;;22.70;99.90;;;;;;20906754;28;20226;-68
2021/07/16 01:18:47;;;;;;;0.20;0.10;;;22.70;99.90;;;;;;20906273;28;20225;-67
2021/07/16 01:28:52;;;;;;;0.60;0.27;;;22.60;99.90;;;;;;20906434;28;20615;-68
2021/07/16 01:38:56;;;;;;;0.50;0.20;;;22.50;99.90;;;;;;20904558;28;20245;-68
2021/07/16 01:49:01;;;;;;;0.43;0.30;;;22.30;99.90;;;;;;20904038;28;20206;-67
2021/07/16 01:59:09;;;;;;;1.07;0.70;;;22.30;99.90;;;;;;20902988;28;20320;-67
2021/07/16 02:09:14;;;;;;;10.60;0.60;;;22.20;99.90;;;;;;20901653;28;20300;-67
2021/07/16 02:19:18;;;;;;;0.60;0.43;;;22.00;99.90;;;;;;20901719;28;20274;-67
2021/07/16 02:29:22;;;;;;;0.63;0.30;;;22.00;99.90;;;;;;20900715;28;20204;-68
2021/07/16 02:39:26;;;;;;;1.13;0.40;;;22.00;99.90;;;;;;20899939;28;20605;-68
2021/07/16 02:49:31;;;;;;;4.77;0.90;;;22.10;99.90;;;;;;20900283;28;20189;-67
2021/07/16 02:59:34;;;;;;;0.60;0.60;;;22.20;99.90;;;;;;20899990;28;20255;-68
2021/07/16 03:09:39;;;;;;;0.33;0.27;;;22.20;99.90;;;;;;20898883;28;20208;-68
2021/07/16 03:19:43;;;;;;;0.40;0.33;;;22.10;99.90;;;;;;20898402;28;20194;-68
2021/07/16 03:29:48;;;;;;;0.30;0.20;;;22.20;99.90;;;;;;20900253;28;20194;-68
2021/07/16 03:39:51;;;;;;;0.50;0.40;;;22.20;99.90;;;;;;20913523;28;20501;-67
2021/07/16 03:49:57;;;;;;;0.30;0.27;;;22.30;99.90;;;;;;20913265;28;20654;-68
2021/07/16 04:00:03;;;;;;;0.20;0.10;;;22.20;99.90;;;;;;20912285;28;20261;-67
2021/07/16 04:10:09;;;;;;;2.20;0.60;;;22.20;99.90;;;;;;20911433;28;20261;-66
2021/07/16 04:20:13;;;;;;;0.33;0.33;;;22.10;99.90;;;;;;20910945;28;20582;-68
2021/07/16 04:30:22;;;;;;;6.13;0.93;;;22.00;99.90;;;;;;20909553;28;20241;-67
2021/07/16 04:40:27;;;;;;;0.30;0.30;;;21.80;99.90;;;;;;20908102;28;20193;-68
2021/07/16 04:50:32;;;;;;;0.50;0.50;;;21.80;99.90;;;;;;20906587;28;20220;-68
2021/07/16 05:00:36;;;;;;;0.60;0.50;;;21.90;99.90;;;;;;20905142;28;20312;-70
2021/07/16 05:10:41;;;;;;;0.60;0.57;;;22.00;99.90;;;;;;20905897;28;20358;-69
2021/07/16 05:20:45;;;;;;;0.73;0.30;;;21.90;99.90;;;;;;20904077;28;20289;-69
2021/07/16 05:30:51;;;;;;;0.43;0.33;;;22.10;99.90;;;;;;20904995;28;20642;-69
2021/07/16 05:40:55;;;;;;;1.40;0.50;;;22.20;99.90;;;;;;20902886;28;20296;-69
2021/07/16 05:51:01;;;;;;;0.80;0.60;;;22.40;99.90;;;;;;20902053;28;20229;-69
2021/07/16 06:01:04;;;;;;;1.13;0.73;;;22.60;99.90;;;;;;20901472;28;20228;-69
2021/07/16 06:11:10;;;;;;;0.50;0.30;;;22.90;99.90;;;;;;20900697;28;20296;-68
2021/07/16 06:21:13;;;;;;;0.70;0.50;;;23.00;99.90;;;;;;20900234;28;20219;-71
2021/07/16 06:31:18;;;;;;;0.50;0.33;;;23.40;99.90;;;;;;20898223;28;20279;-68
2021/07/16 06:41:22;;;;;;;1.23;1.13;;;23.70;99.90;;;;;;20898158;28;20213;-68
2021/07/16 06:51:28;;;;;;;0.80;0.53;;;24.00;99.90;;;;;;20898189;28;20225;-67
2021/07/16 07:01:31;;;;;;;0.57;0.55;;;24.30;99.90;;;;;;20896239;28;20236;-67
2021/07/16 07:11:38;;;;;;;0.30;0.30;;;24.70;99.90;;;;;;20913298;28;20217;-66
2021/07/16 07:21:41;;;;;;;0.50;0.22;;;24.80;99.90;;;;;;20913157;28;20244;-67
2021/07/16 07:31:46;;;;;;;0.82;0.40;;;24.40;99.90;;;;;;20909745;28;20232;-68
2021/07/16 07:41:50;;;;;;;3.53;1.40;;;24.60;99.90;;;;;;20886636;28;20216;-66
2021/07/16 07:51:55;;;;;;;0.52;0.45;;;25.20;99.90;;;;;;20866703;28;20228;-68
2021/07/16 08:01:59;;;;;;;0.68;0.55;;;25.70;99.90;;;;;;20876891;28;20761;-68
2021/07/16 08:12:09;;;;;;;0.73;0.68;;;26.00;99.90;;;;;;20911970;28;20229;-68
2021/07/16 08:22:12;;;;;;;0.82;0.47;;;25.90;99.90;;;;;;20870321;28;20281;-67
2021/07/16 08:32:17;;;;;;;1.25;0.98;;;25.50;99.90;;;;;;20907988;28;20225;-66
2021/07/16 08:42:23;;;;;;;0.47;0.40;;;25.40;99.90;;;;;;20905592;28;20196;-68
2021/07/16 08:52:29;;;;;;;1.20;0.68;;;25.30;99.90;;;;;;20906476;28;20275;-69
2021/07/16 09:02:33;;;;;;;6.28;1.48;;;25.80;99.90;;;;;;20905978;28;20304;-67
2021/07/16 09:12:39;;;;;;;3.75;1.23;;;25.70;99.90;;;;;;20888596;28;20629;-71
2021/07/16 09:22:43;;;;;;;0.65;0.55;;;25.60;99.90;;;;;;20822491;28;20281;-67
2021/07/16 09:32:49;;;;;;;3.33;0.95;;;25.70;99.90;;;;;;20843782;28;20221;-68
2021/07/16 09:43:02;;;;;;;0.95;0.82;;;25.80;99.90;;;;;;20884117;28;20196;-67
2021/07/16 09:53:22;;;;;;;2.38;1.67;;;26.00;99.90;;;;;;20901172;28;20316;-70
2021/07/16 10:03:26;;;;;;;0.65;0.65;;;26.00;99.90;;;;;;20899888;28;20264;-68
2021/07/16 10:13:33;;;;;;;0.85;0.57;;;26.30;99.90;;;;;;20901033;28;20569;-69
2021/07/16 10:23:40;;;;;;;1.15;0.60;;;26.40;99.90;;;;;;20899617;28;20251;-68
2021/07/16 10:33:45;;;;;;;0.47;0.47;;;26.70;99.90;;;;;;20896847;28;20225;-68
2021/07/16 10:43:48;;;;;;;0.75;0.75;;;27.00;99.90;;;;;;20898543;28;20204;-68
2021/07/16 10:53:54;;;;;;;0.80;0.50;;;27.20;99.90;;;;;;20898175;28;20313;-68
2021/07/16 11:04:01;;;;;;;2.05;1.45;;;27.60;99.90;;;;;;20895711;28;20725;-69
2021/07/16 11:14:20;;;;;;;0.60;0.60;;;28.00;99.90;;;;;;20878164;28;20312;-67
2021/07/16 11:24:27;;;;;;;0.90;0.90;;;28.00;99.90;;;;;;20893217;28;20649;-69
2021/07/16 11:34:32;;;;;;;0.52;0.50;;;29.20;99.90;;;;;;20893061;28;20231;-68
2021/07/16 11:44:41;;;;;;;0.90;0.70;;;30.40;99.90;;;;;;20890321;28;20603;-70
2021/07/16 11:54:46;;;;;;;1.02;0.77;;;30.70;99.90;;;;;;20898108;28;20260;-67
2021/07/16 12:04:51;;;;;;;0.93;0.93;;;30.60;99.90;;;;;;20908614;28;20224;-68
2021/07/16 12:14:58;;;;;;;1.67;0.93;;;31.20;99.90;;;;;;20910346;28;20716;-67
2021/07/16 12:25:06;;;;;;;0.73;0.73;;;31.10;99.90;;;;;;20908926;28;20732;-64
2021/07/16 12:35:20;;;;;;;1.15;0.60;;;31.60;99.90;;;;;;20907994;28;20717;-64
2021/07/16 12:45:34;;;;;;;1.90;0.82;;;32.20;99.90;;;;;;20905715;28;20627;-64
2021/07/16 12:55:40;;;;;;;0.95;0.70;;;32.90;99.90;;;;;;20906440;28;20221;-64
2021/07/16 13:05:45;;;;;;;8.15;1.58;;;33.10;99.90;;;;;;20906024;28;20224;-64
2021/07/16 13:16:11;;;;;;;11.20;2.60;;;33.50;99.90;;;;;;20902455;28;20255;-65
2021/07/16 13:26:16;;;;;;;1.08;0.65;;;32.80;99.90;;;;;;20900891;28;20592;-65
2021/07/16 13:36:21;;;;;;;0.85;0.82;;;33.20;99.90;;;;;;20911479;28;20252;-64
2021/07/16 13:46:25;;;;;;;0.90;0.68;;;33.20;99.90;;;;;;20898112;28;20204;-66
2021/07/16 13:56:30;;;;;;;1.23;0.82;;;34.20;99.90;;;;;;20898760;28;20251;-66
2021/07/16 14:06:34;;;;;;;1.67;1.00;;;33.90;99.90;;;;;;20896303;28;20308;-66
2021/07/16 14:16:39;;;;;;;1.25;1.15;;;33.60;99.90;;;;;;20897952;28;20229;-66
2021/07/16 14:26:42;;;;;;;4.50;2.13;;;34.90;99.90;;;;;;20895879;28;20243;-65
2021/07/16 14:36:48;;;;;;;1.10;1.00;;;35.00;99.90;;;;;;20895578;28;20594;-66
2021/07/16 14:46:51;;;;;;;1.35;1.23;;;35.20;99.90;;;;;;20894841;28;20248;-67
2021/07/16 14:56:57;;;;;;;1.50;1.10;;;35.60;99.90;;;;;;20894688;28;20217;-66
2021/07/16 15:07:00;;;;;;;2.25;1.75;;;35.00;99.90;;;;;;20893126;28;20229;-65
2021/07/16 15:17:07;;;;;;;1.15;1.05;;;35.20;99.90;;;;;;20893177;28;20221;-64
2021/07/16 15:27:11;;;;;;;1.20;0.98;;;35.60;99.90;;;;;;20898325;28;20502;-65
2021/07/16 15:37:16;;;;;;;1.13;0.82;;;34.40;99.90;;;;;;20908347;28;20320;-65
2021/07/16 15:47:20;;;;;;;2.95;1.33;;;34.90;99.90;;;;;;20909102;28;20539;-65
2021/07/16 15:57:25;;;;;;;1.05;0.93;;;34.20;99.90;;;;;;20909348;28;20225;-67
2021/07/16 16:07:28;;;;;;;1.02;0.90;;;34.60;99.90;;;;;;20909351;28;20557;-66
2021/07/16 16:17:33;;;;;;;1.42;1.08;;;34.90;99.90;;;;;;20908111;28;20225;-66
2021/07/16 16:27:37;;;;;;;1.40;0.70;;;33.80;99.90;;;;;;20907839;28;20276;-66
2021/07/16 16:37:46;;;;;;;2.60;1.17;;;33.00;99.90;;;;;;20906279;28;20318;-68
2021/07/16 16:47:51;;;;;;;1.63;1.45;;;32.70;99.90;;;;;;20897282;28;20594;-70
2021/07/16 16:57:56;;;;;;;1.15;1.00;;;32.70;99.90;;;;;;20868867;28;20263;-67
2021/07/16 17:07:59;;;;;;;1.77;1.00;;;32.80;99.90;;;;;;20856687;28;20226;-67
2021/07/16 17:18:04;;;;;;;0.90;0.65;;;33.00;99.90;;;;;;20822566;28;20222;-68
2021/07/16 17:28:08;;;;;;;0.80;0.77;;;32.60;99.90;;;;;;20819381;28;20247;-66
2021/07/16 17:38:13;;;;;;;2.65;1.90;;;32.90;99.90;;;;;;20890513;28;20327;-66
2021/07/16 17:48:17;;;;;;;2.03;1.20;;;32.00;99.90;;;;;;20901419;28;20197;-67
2021/07/16 17:58:22;;;;;;;0.75;0.70;;;31.30;99.90;;;;;;20902330;28;20312;-67
2021/07/16 18:08:26;;;;;;;0.60;0.47;;;31.20;99.90;;;;;;20898501;28;20753;-67
2021/07/16 18:18:31;;;;;;;0.90;0.75;;;30.60;99.90;;;;;;20899710;28;20233;-68
2021/07/16 18:28:35;;;;;;;8.75;0.98;;;30.20;99.90;;;;;;20900437;28;20609;-69
2021/07/16 18:38:41;;;;;;;1.17;0.82;;;29.40;99.90;;;;;;20897111;28;20283;-68
2021/07/16 18:48:44;;;;;;;0.70;0.52;;;27.50;99.90;;;;;;20895309;28;20695;-66
2021/07/16 18:58:49;;;;;;;2.42;1.10;;;27.40;99.90;;;;;;20897090;28;20582;-67
2021/07/16 19:08:54;;;;;;;0.47;0.47;;;26.80;99.90;;;;;;20897709;28;20653;-68
2021/07/16 19:18:59;;;;;;;2.50;1.45;;;26.20;99.90;;;;;;20897997;28;20248;-67
2021/07/16 19:29:03;;;;;;;1.15;0.85;;;25.80;99.90;;;;;;20896072;28;20714;-68
2021/07/16 19:39:12;;;;;;;0.60;0.50;;;25.80;99.90;;;;;;20835855;28;20230;-67
2021/07/16 19:49:15;;;;;;;0.45;0.28;;;25.90;99.90;;;;;;20861768;28;20610;-68
2021/07/16 19:59:20;;;;;;;1.83;0.38;;;25.60;99.90;;;;;;20896705;28;20230;-68
2021/07/16 20:09:24;;;;;;;3.17;0.80;;;25.40;99.90;;;;;;20858766;28;20312;-69
2021/07/16 20:19:29;;;;;;;1.27;0.32;;;25.40;99.90;;;;;;20860412;28;20229;-68
2021/07/16 20:29:32;;;;;;;0.50;0.43;;;25.30;99.90;;;;;;20869337;28;20202;-67
2021/07/16 20:39:37;;;;;;;1.50;0.88;;;25.20;99.90;;;;;;20868480;28;20221;-67
2021/07/16 20:49:41;;;;;;;0.68;0.63;;;25.00;99.90;;;;;;20903996;28;20198;-68
2021/07/16 20:59:46;;;;;;;1.05;0.85;;;25.20;99.90;;;;;;20821123;28;20222;-66
2021/07/16 21:09:49;;;;;;;1.52;1.20;;;24.90;99.90;;;;;;20824865;28;20252;-68
2021/07/16 21:19:55;;;;;;;0.57;0.43;;;24.90;99.90;;;;;;20822982;28;20543;-67
2021/07/16 21:29:58;;;;;;;0.30;0.20;;;25.00;99.90;;;;;;20855883;28;20316;-67
2021/07/16 21:40:06;;;;;;;0.30;0.30;;;24.90;99.90;;;;;;20903814;28;20251;-67
2021/07/16 21:50:11;;;;;;;2.88;1.20;;;25.00;99.90;;;;;;20903133;28;20293;-65
2021/07/16 22:00:18;;;;;;;8.57;1.35;;;24.60;99.90;;;;;;20896414;28;20234;-67
2021/07/16 22:10:22;;;;;;;0.70;0.60;;;24.20;99.90;;;;;;20852806;28;20202;-68
2021/07/16 22:20:27;;;;;;;3.42;1.08;;;24.20;99.90;;;;;;20843077;28;20255;-67
2021/07/16 22:30:31;;;;;;;0.93;0.80;;;24.40;99.90;;;;;;20899119;28;20235;-67
2021/07/16 22:40:38;;;;;;;0.57;0.57;;;24.40;99.90;;;;;;20966152;28;20224;-67
2021/07/16 22:50:42;;;;;;;0.80;0.67;;;24.10;99.90;;;;;;20982162;28;20199;-67
2021/07/16 23:00:47;;;;;;;1.37;0.90;;;23.90;99.90;;;;;;20925925;28;20236;-66
2021/07/16 23:10:51;;;;;;;1.40;0.50;;;23.70;99.90;;;;;;20898917;28;20247;-66
2021/07/16 23:21:00;;;;;;;0.97;0.80;;;23.50;99.90;;;;;;20897986;28;20283;-65
2021/07/16 23:31:05;;;;;;;0.47;0.47;;;23.40;99.90;;;;;;20897755;28;20196;-67
2021/07/16 23:41:10;;;;;;;0.90;0.63;;;23.20;99.90;;;;;;20896173;28;20291;-67
2021/07/16 23:51:13;;;;;;;0.73;0.60;;;23.00;99.90;;;;;;20907123;28;20208;-66
